createdAt,value
2019-05-25T00:01:36.483Z,1.17
2019-05-25T00:04:05.329Z,1.00
2019-05-25T00:06:34.357Z,1.20
2019-05-25T00:09:03.651Z,1.30
2019-05-25T00:11:32.972Z,1.00
2019-05-25T00:14:01.700Z,1.50
2019-05-25T00:16:30.435Z,0.90
2019-05-25T00:18:59.588Z,1.10
2019-05-25T00:21:28.314Z,1.20
2019-05-25T00:24:11.127Z,1.23
2019-05-25T00:26:28.114Z,0.93
2019-05-25T00:28:56.844Z,1.20
2019-05-25T00:31:25.567Z,1.10
2019-05-25T00:33:54.471Z,1.27
2019-05-25T00:36:23.211Z,1.33
2019-05-25T00:38:52.136Z,1.27
2019-05-25T00:41:21.259Z,1.17
2019-05-25T00:43:49.972Z,0.80
2019-05-25T00:46:18.870Z,0.90
2019-05-25T00:48:47.907Z,1.10
2019-05-25T00:51:16.631Z,1.17
2019-05-25T00:53:45.355Z,1.40
2019-05-25T00:56:14.889Z,1.27
2019-05-25T00:58:43.615Z,1.30
2019-05-25T01:01:12.533Z,1.17
2019-05-25T01:03:41.258Z,1.20
2019-05-25T01:06:09.968Z,1.77
2019-05-25T01:08:38.696Z,0.97
2019-05-25T01:11:07.442Z,1.37
2019-05-25T01:13:36.184Z,1.20
2019-05-25T01:16:05.002Z,1.43
2019-05-25T01:18:34.583Z,1.30
2019-05-25T01:21:03.309Z,1.20
2019-05-25T01:23:32.049Z,1.43
2019-05-25T01:26:01.550Z,1.30
2019-05-25T01:28:30.290Z,1.30
2019-05-25T01:30:59.203Z,1.30
2019-05-25T01:33:28.543Z,1.33
2019-05-25T01:35:57.266Z,1.10
2019-05-25T01:38:26.175Z,1.30
2019-05-25T01:40:54.943Z,1.50
2019-05-25T01:43:24.560Z,1.20
2019-05-25T01:45:53.307Z,1.23
2019-05-25T01:48:22.529Z,1.40
2019-05-25T01:50:51.339Z,1.00
2019-05-25T01:53:20.069Z,1.20
2019-05-25T01:55:49.171Z,1.40
2019-05-25T01:58:17.895Z,1.60
2019-05-25T02:00:46.703Z,1.00
2019-05-25T02:03:15.479Z,1.20
2019-05-25T02:05:44.225Z,1.27
2019-05-25T02:08:12.936Z,1.60
2019-05-25T02:10:41.678Z,1.47
2019-05-25T02:13:10.391Z,1.13
2019-05-25T02:15:39.111Z,1.67
2019-05-25T02:18:08.825Z,1.27
2019-05-25T02:20:37.552Z,1.30
2019-05-25T02:23:06.305Z,1.20
2019-05-25T02:25:35.527Z,1.50
2019-05-25T02:28:04.234Z,1.33
2019-05-25T02:30:32.949Z,1.27
2019-05-25T02:33:01.720Z,1.30
2019-05-25T02:35:30.523Z,1.40
2019-05-25T02:37:59.246Z,1.60
2019-05-25T02:40:28.674Z,1.30
2019-05-25T02:42:58.772Z,1.23
2019-05-25T02:45:27.499Z,1.20
2019-05-25T02:47:57.074Z,1.60
2019-05-25T02:50:25.806Z,1.03
2019-05-25T02:52:54.594Z,1.53
2019-05-25T02:55:33.579Z,1.40
2019-05-25T02:57:54.526Z,1.30
2019-05-25T03:00:32.114Z,1.60
2019-05-25T03:03:01.107Z,1.50
2019-05-25T03:05:29.830Z,1.10
2019-05-25T03:07:58.677Z,1.27
2019-05-25T03:10:27.402Z,1.23
2019-05-25T03:12:56.219Z,1.60
2019-05-25T03:15:25.494Z,1.20
2019-05-25T03:17:54.214Z,1.40
2019-05-25T03:20:22.943Z,1.40
2019-05-25T03:22:52.539Z,1.90
2019-05-25T03:25:21.290Z,1.40
2019-05-25T03:27:50.015Z,1.40
2019-05-25T03:30:29.995Z,1.00
2019-05-25T03:32:58.791Z,1.20
2019-05-25T03:35:27.528Z,1.37
2019-05-25T03:37:56.878Z,1.43
2019-05-25T03:40:25.607Z,1.67
2019-05-25T03:42:54.915Z,1.33
2019-05-25T03:45:25.690Z,1.50
2019-05-25T03:47:54.455Z,1.57
2019-05-25T03:50:23.196Z,1.47
2019-05-25T03:52:52.371Z,1.27
2019-05-25T03:55:21.124Z,1.67
2019-05-25T03:57:50.024Z,1.50
2019-05-25T04:00:30.535Z,1.10
2019-05-25T04:02:59.302Z,1.70
2019-05-25T04:05:28.015Z,1.87
2019-05-25T04:07:57.071Z,1.40
2019-05-25T04:10:25.787Z,1.30
2019-05-25T04:12:54.527Z,1.77
2019-05-25T04:15:23.808Z,1.27
2019-05-25T04:17:52.597Z,1.33
2019-05-25T04:20:21.327Z,1.70
2019-05-25T04:22:50.719Z,1.37
2019-05-25T04:25:19.452Z,1.33
2019-05-25T04:27:48.270Z,1.80
2019-05-25T04:30:17.612Z,1.33
2019-05-25T04:32:46.399Z,1.30
2019-05-25T04:35:15.386Z,1.27
2019-05-25T04:37:44.224Z,1.10
2019-05-25T04:40:13.004Z,1.63
2019-05-25T04:42:41.842Z,1.00
2019-05-25T04:45:11.751Z,1.10
2019-05-25T04:47:40.491Z,1.10
2019-05-25T04:50:09.279Z,1.40
2019-05-25T04:52:41.240Z,1.20
2019-05-25T04:55:09.203Z,1.27
2019-05-25T04:57:37.946Z,1.20
2019-05-25T05:00:07.967Z,1.00
2019-05-25T05:02:36.683Z,1.33
2019-05-25T05:05:06.870Z,1.20
2019-05-25T05:07:35.642Z,1.30
2019-05-25T05:10:05.523Z,1.20
2019-05-25T05:12:34.252Z,1.27
2019-05-25T05:15:03.434Z,1.00
2019-05-25T05:17:32.180Z,1.13
2019-05-25T05:20:00.906Z,1.07
2019-05-25T05:22:30.106Z,1.00
2019-05-25T05:24:58.842Z,1.77
2019-05-25T05:27:27.570Z,1.40
2019-05-25T05:29:56.315Z,1.20
2019-05-25T05:32:27.820Z,1.20
2019-05-25T05:34:55.509Z,1.00
2019-05-25T05:37:24.592Z,1.20
2019-05-25T05:39:53.762Z,1.33
2019-05-25T05:42:22.488Z,1.17
2019-05-25T05:44:51.536Z,1.10
2019-05-25T05:47:21.422Z,1.00
2019-05-25T05:49:50.317Z,0.90
2019-05-25T05:52:19.666Z,1.07
2019-05-25T05:54:48.447Z,0.90
2019-05-25T05:57:17.191Z,0.90
2019-05-25T05:59:46.203Z,1.03
2019-05-25T06:02:14.941Z,0.90
2019-05-25T06:04:43.670Z,1.20
2019-05-25T06:07:12.479Z,1.10
2019-05-25T06:09:41.215Z,0.77
2019-05-25T06:12:09.963Z,1.17
2019-05-25T06:14:38.891Z,1.30
2019-05-25T06:17:07.619Z,1.23
2019-05-25T06:19:36.345Z,1.10
2019-05-25T06:22:05.729Z,1.10
2019-05-25T06:24:34.606Z,1.00
2019-05-25T06:27:03.366Z,1.00
2019-05-25T06:29:32.120Z,1.40
2019-05-25T06:32:00.842Z,0.80
2019-05-25T06:34:29.580Z,1.10
2019-05-25T06:36:58.316Z,0.97
2019-05-25T06:39:27.046Z,0.93
2019-05-25T06:41:55.769Z,1.07
2019-05-25T06:44:24.805Z,1.00
2019-05-25T06:46:53.947Z,1.10
2019-05-25T06:49:22.713Z,1.10
2019-05-25T06:51:52.078Z,1.00
2019-05-25T06:54:20.825Z,0.80
2019-05-25T06:56:49.814Z,0.90
2019-05-25T06:59:18.764Z,1.10
2019-05-25T07:01:47.559Z,0.90
2019-05-25T07:04:16.301Z,1.20
2019-05-25T07:06:45.471Z,1.10
2019-05-25T07:09:14.284Z,1.00
2019-05-25T07:11:43.014Z,0.90
2019-05-25T07:14:12.094Z,1.10
2019-05-25T07:16:40.968Z,0.80
2019-05-25T07:19:09.751Z,1.03
2019-05-25T07:21:39.086Z,1.20
2019-05-25T07:24:08.043Z,0.97
2019-05-25T07:26:36.755Z,1.20
2019-05-25T07:29:05.518Z,1.00
2019-05-25T07:31:34.295Z,1.10
2019-05-25T07:34:03.045Z,1.00
2019-05-25T07:36:31.886Z,0.90
2019-05-25T07:39:00.757Z,1.30
2019-05-25T07:41:29.484Z,1.20
2019-05-25T07:43:58.546Z,1.10
2019-05-25T07:46:27.519Z,1.20
2019-05-25T07:48:56.756Z,1.03
2019-05-25T07:51:26.052Z,1.00
2019-05-25T07:53:54.780Z,0.90
2019-05-25T07:56:23.502Z,1.30
2019-05-25T07:58:53.034Z,1.10
2019-05-25T08:01:23.536Z,1.10
2019-05-25T08:03:54.082Z,0.90
2019-05-25T08:06:22.846Z,1.20
2019-05-25T08:08:51.617Z,1.10
2019-05-25T08:11:20.351Z,1.10
2019-05-25T08:13:49.556Z,1.07
2019-05-25T08:16:18.289Z,1.00
2019-05-25T08:18:47.006Z,0.80
2019-05-25T08:21:16.432Z,1.03
2019-05-25T08:23:45.251Z,1.20
2019-05-25T08:26:14.274Z,1.10
2019-05-25T08:28:43.119Z,1.10
2019-05-25T08:31:11.835Z,1.10
2019-05-25T08:33:40.589Z,1.10
2019-05-25T08:36:09.330Z,1.20
2019-05-25T08:38:38.095Z,1.10
2019-05-25T08:41:06.828Z,0.90
2019-05-25T08:43:36.439Z,1.13
2019-05-25T08:46:05.796Z,1.03
2019-05-25T08:48:35.318Z,1.30
2019-05-25T08:51:04.335Z,1.07
2019-05-25T08:53:41.343Z,1.20
2019-05-25T08:56:05.084Z,0.87
2019-05-25T08:58:47.475Z,0.90
2019-05-25T09:01:04.591Z,0.73
2019-05-25T09:03:33.315Z,0.97
2019-05-25T09:06:02.062Z,1.30
2019-05-25T09:08:30.792Z,1.20
2019-05-25T09:10:59.511Z,0.97
2019-05-25T09:13:28.731Z,1.00
2019-05-25T09:15:57.518Z,1.37
2019-05-25T09:18:26.314Z,1.20
2019-05-25T09:20:55.707Z,0.90
2019-05-25T09:23:24.676Z,1.00
2019-05-25T09:25:53.397Z,1.20
2019-05-25T09:28:22.135Z,1.00
2019-05-25T09:30:50.907Z,1.00
2019-05-25T09:33:20.848Z,0.90
2019-05-25T09:35:49.895Z,0.90
2019-05-25T09:38:18.615Z,1.00
2019-05-25T09:40:47.336Z,1.20
2019-05-25T09:43:16.798Z,1.00
2019-05-25T09:45:45.897Z,1.17
2019-05-25T09:48:15.155Z,0.93
2019-05-25T09:50:45.761Z,1.03
2019-05-25T09:53:14.596Z,1.20
2019-05-25T09:55:43.328Z,1.33
2019-05-25T09:58:12.126Z,0.93
2019-05-25T10:00:40.858Z,1.33
2019-05-25T10:03:09.578Z,0.87
2019-05-25T10:05:39.003Z,1.10
2019-05-25T10:08:07.760Z,1.03
2019-05-25T10:10:36.831Z,0.90
2019-05-25T10:13:05.576Z,1.17
2019-05-25T10:15:34.294Z,1.20
2019-05-25T10:18:03.028Z,0.87
2019-05-25T10:20:32.435Z,1.00
2019-05-25T10:23:01.324Z,1.10
2019-05-25T10:25:30.114Z,1.10
2019-05-25T10:27:58.902Z,1.00
2019-05-25T10:30:27.636Z,1.20
2019-05-25T10:32:56.362Z,0.97
2019-05-25T10:35:25.195Z,0.90
2019-05-25T10:37:54.023Z,1.10
2019-05-25T10:40:22.764Z,1.00
2019-05-25T10:42:51.633Z,1.00
2019-05-25T10:45:20.355Z,0.90
2019-05-25T10:47:49.771Z,1.07
2019-05-25T10:50:21.271Z,1.50
2019-05-25T10:52:49.996Z,1.13
2019-05-25T10:55:18.715Z,0.90
2019-05-25T10:57:47.486Z,0.90
2019-05-25T11:00:16.436Z,0.97
2019-05-25T11:02:45.153Z,0.90
2019-05-25T11:05:13.959Z,0.90
2019-05-25T11:07:42.676Z,0.87
2019-05-25T11:10:11.553Z,1.00
2019-05-25T11:12:40.536Z,1.00
2019-05-25T11:15:10.226Z,1.10
2019-05-25T11:17:38.943Z,0.90
2019-05-25T11:20:08.659Z,1.10
2019-05-25T11:22:37.472Z,0.90
2019-05-25T11:25:06.648Z,0.80
2019-05-25T11:27:35.403Z,0.90
2019-05-25T11:30:08.939Z,0.70
2019-05-25T11:32:34.851Z,1.10
2019-05-25T11:35:03.651Z,0.83
2019-05-25T11:37:32.370Z,0.97
2019-05-25T11:40:01.121Z,1.13
2019-05-25T11:42:30.228Z,1.07
2019-05-25T11:44:58.939Z,0.93
2019-05-25T11:47:27.857Z,1.23
2019-05-25T11:49:57.701Z,0.97
2019-05-25T11:52:26.410Z,0.90
2019-05-25T11:54:55.152Z,1.20
2019-05-25T11:57:24.463Z,0.90
2019-05-25T11:59:53.175Z,0.90
2019-05-25T12:02:21.898Z,1.10
2019-05-25T12:04:50.676Z,0.90
2019-05-25T12:07:19.400Z,1.10
2019-05-25T12:09:48.130Z,1.30
2019-05-25T12:12:17.503Z,1.10
2019-05-25T12:14:46.244Z,0.80
2019-05-25T12:17:14.998Z,0.73
2019-05-25T12:19:44.272Z,0.80
2019-05-25T12:22:13.238Z,0.97
2019-05-25T12:24:41.987Z,0.97
2019-05-25T12:27:10.755Z,0.80
2019-05-25T12:29:39.551Z,0.70
2019-05-25T12:32:08.272Z,0.90
2019-05-25T12:34:37.359Z,1.00
2019-05-25T12:37:06.079Z,1.10
2019-05-25T12:39:34.813Z,0.97
2019-05-25T12:42:03.763Z,0.93
2019-05-25T12:44:34.466Z,0.80
2019-05-25T12:47:03.373Z,0.83
2019-05-25T12:49:49.393Z,1.03
2019-05-25T12:52:03.686Z,0.87
2019-05-25T12:54:32.716Z,0.70
2019-05-25T12:57:02.813Z,0.90
2019-05-25T12:59:31.975Z,1.07
2019-05-25T13:02:00.694Z,0.67
2019-05-25T13:04:29.473Z,0.60
2019-05-25T13:06:58.275Z,0.93
2019-05-25T13:09:27.083Z,0.70
2019-05-25T13:11:55.835Z,0.80
2019-05-25T13:14:24.617Z,0.63
2019-05-25T13:16:53.356Z,0.70
2019-05-25T13:19:22.220Z,0.70
2019-05-25T13:21:51.018Z,0.70
2019-05-25T13:24:19.842Z,0.90
2019-05-25T13:26:48.612Z,0.93
2019-05-25T13:29:17.343Z,0.80
2019-05-25T13:31:46.076Z,0.70
2019-05-25T13:34:15.073Z,0.70
2019-05-25T13:36:43.821Z,0.63
2019-05-25T13:39:12.711Z,0.70
2019-05-25T13:41:41.473Z,0.77
2019-05-25T13:44:10.195Z,0.70
2019-05-25T13:46:38.921Z,0.80
2019-05-25T13:49:08.093Z,0.70
2019-05-25T13:51:37.527Z,1.00
2019-05-25T13:54:06.350Z,0.70
2019-05-25T13:56:35.670Z,1.00
2019-05-25T13:59:04.420Z,0.73
2019-05-25T14:01:33.331Z,0.70
2019-05-25T14:04:02.101Z,0.60
2019-05-25T14:06:30.995Z,0.73
2019-05-25T14:08:59.739Z,1.00
2019-05-25T14:11:28.476Z,0.80
2019-05-25T14:13:57.231Z,1.00
2019-05-25T14:16:25.947Z,1.10
2019-05-25T14:18:55.067Z,0.80
2019-05-25T14:21:23.858Z,1.43
2019-05-25T14:23:52.577Z,0.80
2019-05-25T14:26:21.362Z,0.83
2019-05-25T14:28:50.100Z,0.80
2019-05-25T14:31:18.906Z,0.83
2019-05-25T14:33:47.653Z,1.10
2019-05-25T14:36:16.443Z,0.90
2019-05-25T14:38:45.171Z,0.83
2019-05-25T14:41:14.210Z,0.70
2019-05-25T14:43:43.152Z,0.70
2019-05-25T14:46:25.176Z,1.10
2019-05-25T14:48:42.976Z,0.73
2019-05-25T14:51:11.961Z,1.20
2019-05-25T14:53:40.666Z,0.83
2019-05-25T14:56:10.124Z,0.93
2019-05-25T14:58:38.889Z,0.70
2019-05-25T15:01:07.912Z,0.90
2019-05-25T15:03:36.687Z,1.00
2019-05-25T15:06:05.590Z,0.60
2019-05-25T15:08:34.375Z,0.90
2019-05-25T15:11:03.111Z,0.70
2019-05-25T15:13:32.016Z,1.20
2019-05-25T15:16:00.747Z,0.90
2019-05-25T15:18:30.238Z,1.07
2019-05-25T15:20:58.976Z,0.90
2019-05-25T15:23:27.710Z,1.00
2019-05-25T15:25:57.058Z,0.73
2019-05-25T15:28:25.775Z,0.80
2019-05-25T15:30:54.508Z,0.80
2019-05-25T15:33:23.632Z,0.97
2019-05-25T15:35:52.718Z,0.90
2019-05-25T15:38:21.455Z,1.03
2019-05-25T15:40:50.235Z,0.80
2019-05-25T15:43:18.966Z,0.70
2019-05-25T15:45:47.685Z,1.10
2019-05-25T15:48:16.999Z,0.80
2019-05-25T15:50:46.313Z,0.97
2019-05-25T15:53:15.539Z,1.00
2019-05-25T15:55:45.161Z,0.97
2019-05-25T15:58:13.904Z,0.90
2019-05-25T16:00:47.426Z,1.13
2019-05-25T16:03:17.447Z,0.80
2019-05-25T16:05:47.723Z,0.80
2019-05-25T16:08:17.060Z,0.70
2019-05-25T16:10:46.291Z,0.87
2019-05-25T16:13:15.035Z,0.90
2019-05-25T16:15:43.769Z,1.00
2019-05-25T16:18:13.655Z,1.20
2019-05-25T16:20:42.380Z,1.30
2019-05-25T16:23:11.182Z,1.13
2019-05-25T16:25:40.329Z,0.90
2019-05-25T16:28:09.136Z,1.00
2019-05-25T16:30:37.860Z,1.03
2019-05-25T16:33:12.250Z,0.90
2019-05-25T16:35:37.217Z,0.70
2019-05-25T16:38:06.099Z,0.80
2019-05-25T16:40:35.189Z,0.70
2019-05-25T16:43:03.918Z,1.00
2019-05-25T16:45:32.644Z,1.00
2019-05-25T16:48:02.174Z,1.10
2019-05-25T16:50:31.224Z,0.90
2019-05-25T16:53:00.765Z,1.20
2019-05-25T16:55:29.494Z,1.20
2019-05-25T16:57:58.210Z,1.00
2019-05-25T17:00:27.896Z,1.00
2019-05-25T17:02:57.247Z,1.00
2019-05-25T17:05:26.639Z,0.90
2019-05-25T17:07:56.167Z,1.20
2019-05-25T17:10:24.996Z,0.90
2019-05-25T17:12:53.721Z,1.10
2019-05-25T17:15:22.957Z,0.90
2019-05-25T17:17:51.807Z,1.03
2019-05-25T17:20:20.728Z,1.10
2019-05-25T17:22:50.983Z,1.13
2019-05-25T17:25:19.779Z,1.00
2019-05-25T17:27:48.548Z,1.20
2019-05-25T17:30:19.087Z,1.23
2019-05-25T17:32:47.826Z,1.10
2019-05-25T17:35:16.640Z,1.20
2019-05-25T17:37:45.445Z,0.90
2019-05-25T17:40:14.401Z,1.10
2019-05-25T17:42:43.183Z,1.13
2019-05-25T17:45:12.420Z,1.00
2019-05-25T17:47:41.128Z,0.87
2019-05-25T17:50:09.899Z,1.67
2019-05-25T17:52:38.840Z,1.30
2019-05-25T17:55:08.269Z,1.30
2019-05-25T17:57:37.031Z,1.03
2019-05-25T18:00:06.702Z,1.03
2019-05-25T18:02:35.496Z,1.20
2019-05-25T18:05:04.622Z,0.70
2019-05-25T18:07:33.462Z,1.10
2019-05-25T18:10:02.190Z,1.30
2019-05-25T18:12:30.916Z,1.20
2019-05-25T18:15:00.389Z,1.20
2019-05-25T18:17:29.112Z,1.30
2019-05-25T18:19:57.927Z,1.10
2019-05-25T18:22:27.057Z,1.00
2019-05-25T18:24:55.784Z,0.90
2019-05-25T18:27:24.503Z,1.30
2019-05-25T18:29:53.434Z,1.10
2019-05-25T18:32:22.181Z,1.23
2019-05-25T18:34:50.917Z,1.30
2019-05-25T18:37:21.592Z,1.10
2019-05-25T18:39:50.285Z,1.00
2019-05-25T18:42:19.071Z,1.10
2019-05-25T18:44:48.291Z,1.10
2019-05-25T18:47:17.091Z,1.20
2019-05-25T18:49:45.882Z,0.90
2019-05-25T18:52:15.267Z,1.00
2019-05-25T18:54:44.322Z,1.10
2019-05-25T18:57:13.264Z,1.13
2019-05-25T18:59:42.243Z,1.03
2019-05-25T19:02:10.970Z,1.50
2019-05-25T19:04:47.506Z,1.10
2019-05-25T19:07:10.231Z,1.30
2019-05-25T19:09:38.966Z,1.13
2019-05-25T19:12:07.691Z,1.30
2019-05-25T19:14:36.909Z,1.40
2019-05-25T19:17:05.796Z,1.13
2019-05-25T19:19:34.573Z,1.00
2019-05-25T19:22:03.755Z,1.20
2019-05-25T19:24:32.488Z,1.13
2019-05-25T19:27:01.292Z,1.10
2019-05-25T19:29:30.084Z,1.47
2019-05-25T19:31:58.807Z,1.20
2019-05-25T19:34:27.545Z,1.37
2019-05-25T19:36:56.312Z,1.33
2019-05-25T19:39:25.055Z,1.30
2019-05-25T19:41:53.791Z,1.33
2019-05-25T19:44:23.795Z,1.10
2019-05-25T19:46:52.544Z,1.10
2019-05-25T19:49:21.269Z,1.07
2019-05-25T19:51:50.736Z,1.37
2019-05-25T19:54:19.630Z,1.60
2019-05-25T19:56:50.270Z,1.30
2019-05-25T19:59:19.115Z,1.13
2019-05-25T20:01:47.988Z,1.10
2019-05-25T20:04:16.790Z,1.30
2019-05-25T20:06:45.674Z,1.20
2019-05-25T20:09:14.474Z,1.30
2019-05-25T20:11:43.213Z,1.50
2019-05-25T20:14:12.314Z,1.60
2019-05-25T20:16:41.048Z,1.43
2019-05-25T20:19:09.972Z,1.20
2019-05-25T20:21:39.914Z,1.40
2019-05-25T20:24:09.287Z,1.20
2019-05-25T20:26:38.055Z,1.53
2019-05-25T20:29:08.203Z,1.67
2019-05-25T20:31:36.941Z,1.53
2019-05-25T20:34:08.339Z,1.67
2019-05-25T20:36:37.659Z,1.37
2019-05-25T20:39:07.337Z,1.27
2019-05-25T20:41:36.055Z,1.60
2019-05-25T20:44:05.958Z,1.53
2019-05-25T20:46:34.713Z,1.50
2019-05-25T20:49:03.645Z,1.73
2019-05-25T20:51:32.687Z,1.47
2019-05-25T20:54:01.476Z,1.47
2019-05-25T20:56:30.495Z,1.60
2019-05-25T20:58:59.604Z,1.40
2019-05-25T21:01:28.333Z,1.70
2019-05-25T21:03:57.057Z,1.30
2019-05-25T21:06:25.866Z,1.80
2019-05-25T21:08:54.611Z,1.63
2019-05-25T21:11:23.335Z,1.70
2019-05-25T21:13:52.427Z,1.70
2019-05-25T21:16:21.167Z,1.60
2019-05-25T21:18:49.919Z,1.67
2019-05-25T21:21:19.095Z,1.60
2019-05-25T21:23:47.823Z,1.23
2019-05-25T21:26:16.562Z,1.90
2019-05-25T21:28:45.488Z,1.97
2019-05-25T21:31:14.217Z,1.40
2019-05-25T21:33:42.966Z,1.40
2019-05-25T21:36:11.714Z,1.30
2019-05-25T21:38:40.523Z,1.70
2019-05-25T21:41:09.239Z,1.60
2019-05-25T21:43:38.287Z,1.87
2019-05-25T21:46:07.037Z,1.60
2019-05-25T21:48:35.950Z,1.90
2019-05-25T21:51:05.541Z,1.90
2019-05-25T21:53:34.262Z,1.60
2019-05-25T21:56:03.330Z,1.80
2019-05-25T21:58:32.677Z,2.20
2019-05-25T22:01:01.412Z,1.60
2019-05-25T22:03:30.136Z,1.83
2019-05-25T22:05:58.890Z,1.90
2019-05-25T22:08:27.636Z,2.00
2019-05-25T22:10:56.564Z,2.27
2019-05-25T22:13:28.904Z,1.57
2019-05-25T22:15:56.369Z,1.83
2019-05-25T22:18:25.187Z,2.07
2019-05-25T22:20:53.960Z,2.30
2019-05-25T22:23:22.760Z,2.10
2019-05-25T22:25:51.543Z,1.77
2019-05-25T22:28:21.371Z,1.80
2019-05-25T22:30:50.103Z,1.80
2019-05-25T22:33:18.811Z,2.20
2019-05-25T22:35:47.612Z,2.07
2019-05-25T22:38:16.467Z,1.83
2019-05-25T22:40:45.191Z,2.10
2019-05-25T22:43:15.114Z,2.40
2019-05-25T22:45:43.851Z,2.10
2019-05-25T22:48:12.568Z,2.30
2019-05-25T22:50:41.787Z,2.30
2019-05-25T22:53:10.529Z,2.30
2019-05-25T22:55:39.509Z,2.30
2019-05-25T22:58:08.535Z,2.03
2019-05-25T23:00:38.675Z,2.47
2019-05-25T23:03:07.422Z,2.60
2019-05-25T23:05:36.354Z,2.30
2019-05-25T23:08:05.407Z,2.03
2019-05-25T23:10:34.326Z,2.10
2019-05-25T23:13:03.268Z,2.20
2019-05-25T23:15:32.066Z,2.50
2019-05-25T23:18:00.782Z,2.07
2019-05-25T23:20:30.036Z,2.50
2019-05-25T23:22:58.772Z,2.27
2019-05-25T23:25:27.508Z,2.13
2019-05-25T23:27:56.459Z,2.00
2019-05-25T23:30:25.375Z,2.00
2019-05-25T23:32:54.103Z,1.80
2019-05-25T23:35:22.855Z,2.40
2019-05-25T23:37:52.886Z,2.43
2019-05-25T23:40:21.806Z,2.07
2019-05-25T23:42:50.566Z,2.30
2019-05-25T23:45:19.368Z,2.40
2019-05-25T23:47:48.284Z,1.90
2019-05-25T23:50:17.684Z,2.30
2019-05-25T23:52:46.482Z,2.53
2019-05-25T23:55:15.906Z,2.43
2019-05-25T23:57:44.847Z,2.37
